Terminal Aerodrome Forecast
Issued by NWS Cleveland, OH

Home | Current Version | Previous Version | Graphics & Text | Print | Product List | Glossary On
Versions: 1 2 3 4 5 6 7 8 9 10 11 12 13 14 15 16 17 18 19 20 21 22 23 24 25 26 27 28 29 30 31
000
FTUS41 KCLE 271100
TAFCLE
TAF
KCLE 271139Z 2712/2818 01005KT 5SM BR OVC012
     FM271330 01006KT P6SM OVC018
     FM271500 01006KT P6SM BKN025
     FM271700 01010KT P6SM FEW030
     FM280000 02005KT P6SM SCT250=

USA.gov is the U.S. government's official web portal to all federal, state and local government web resources and services.